sensor_id;sensor_type;location;lat;lon;timestamp;P1;durP1;ratioP1;P2;durP2;ratioP2
13743;SDS011;6943;52.368;9.966;2023-03-31T00:01:47;4.50;;;2.17;;
13743;SDS011;6943;52.368;9.966;2023-03-31T00:04:12;5.87;;;2.23;;
13743;SDS011;6943;52.368;9.966;2023-03-31T00:06:38;4.60;;;2.47;;
13743;SDS011;6943;52.368;9.966;2023-03-31T00:09:07;6.87;;;2.37;;
13743;SDS011;6943;52.368;9.966;2023-03-31T00:11:34;5.53;;;2.27;;
13743;SDS011;6943;52.368;9.966;2023-03-31T00:14:01;6.90;;;2.40;;
13743;SDS011;6943;52.368;9.966;2023-03-31T00:16:27;7.23;;;2.30;;
13743;SDS011;6943;52.368;9.966;2023-03-31T00:18:52;6.93;;;2.50;;
13743;SDS011;6943;52.368;9.966;2023-03-31T00:21:20;8.03;;;2.33;;
13743;SDS011;6943;52.368;9.966;2023-03-31T00:23:54;7.13;;;2.20;;
13743;SDS011;6943;52.368;9.966;2023-03-31T00:26:27;7.23;;;2.07;;
13743;SDS011;6943;52.368;9.966;2023-03-31T00:28:53;7.23;;;2.60;;
13743;SDS011;6943;52.368;9.966;2023-03-31T00:31:19;6.57;;;2.20;;
13743;SDS011;6943;52.368;9.966;2023-03-31T00:33:46;5.53;;;2.20;;
13743;SDS011;6943;52.368;9.966;2023-03-31T00:36:11;4.57;;;2.50;;
13743;SDS011;6943;52.368;9.966;2023-03-31T00:38:37;8.47;;;2.30;;
13743;SDS011;6943;52.368;9.966;2023-03-31T00:41:03;5.27;;;2.10;;
13743;SDS011;6943;52.368;9.966;2023-03-31T00:43:31;6.37;;;1.87;;
13743;SDS011;6943;52.368;9.966;2023-03-31T00:46:06;7.30;;;2.40;;
13743;SDS011;6943;52.368;9.966;2023-03-31T00:48:48;4.57;;;1.90;;
13743;SDS011;6943;52.368;9.966;2023-03-31T00:51:16;7.30;;;2.43;;
13743;SDS011;6943;52.368;9.966;2023-03-31T00:53:42;6.17;;;2.10;;
13743;SDS011;6943;52.368;9.966;2023-03-31T00:56:12;4.97;;;2.03;;
13743;SDS011;6943;52.368;9.966;2023-03-31T00:58:40;4.53;;;1.83;;
13743;SDS011;6943;52.368;9.966;2023-03-31T01:01:11;7.73;;;2.17;;
13743;SDS011;6943;52.368;9.966;2023-03-31T01:03:41;4.97;;;2.00;;
13743;SDS011;6943;52.368;9.966;2023-03-31T01:06:10;5.63;;;2.30;;
13743;SDS011;6943;52.368;9.966;2023-03-31T01:08:43;4.07;;;2.00;;
13743;SDS011;6943;52.368;9.966;2023-03-31T01:11:12;6.57;;;2.20;;
13743;SDS011;6943;52.368;9.966;2023-03-31T01:13:40;6.07;;;2.03;;
13743;SDS011;6943;52.368;9.966;2023-03-31T01:16:07;6.30;;;1.80;;
13743;SDS011;6943;52.368;9.966;2023-03-31T01:18:33;4.37;;;1.67;;
13743;SDS011;6943;52.368;9.966;2023-03-31T01:32:49;4.17;;;2.07;;
13743;SDS011;6943;52.368;9.966;2023-03-31T01:40:41;5.17;;;1.50;;
13743;SDS011;6943;52.368;9.966;2023-03-31T01:43:22;6.30;;;1.90;;
13743;SDS011;6943;52.368;9.966;2023-03-31T01:48:58;3.67;;;1.40;;
13743;SDS011;6943;52.368;9.966;2023-03-31T01:51:51;6.73;;;2.23;;
13743;SDS011;6943;52.368;9.966;2023-03-31T01:54:29;3.73;;;2.00;;
13743;SDS011;6943;52.368;9.966;2023-03-31T01:57:27;4.10;;;1.60;;
13743;SDS011;6943;52.368;9.966;2023-03-31T02:00:00;5.80;;;1.83;;
13743;SDS011;6943;52.368;9.966;2023-03-31T02:02:48;4.63;;;1.77;;
13743;SDS011;6943;52.368;9.966;2023-03-31T02:05:19;4.07;;;1.70;;
13743;SDS011;6943;52.368;9.966;2023-03-31T02:08:07;5.13;;;1.80;;
13743;SDS011;6943;52.368;9.966;2023-03-31T02:10:36;5.00;;;1.90;;
13743;SDS011;6943;52.368;9.966;2023-03-31T02:13:05;6.23;;;1.90;;
13743;SDS011;6943;52.368;9.966;2023-03-31T02:15:34;3.40;;;2.03;;
13743;SDS011;6943;52.368;9.966;2023-03-31T02:18:03;5.20;;;2.40;;
13743;SDS011;6943;52.368;9.966;2023-03-31T02:20:35;4.63;;;1.70;;
13743;SDS011;6943;52.368;9.966;2023-03-31T02:23:03;5.43;;;1.87;;
13743;SDS011;6943;52.368;9.966;2023-03-31T02:25:33;4.90;;;1.80;;
13743;SDS011;6943;52.368;9.966;2023-03-31T02:28:03;5.47;;;1.60;;
13743;SDS011;6943;52.368;9.966;2023-03-31T02:30:51;5.67;;;1.83;;
13743;SDS011;6943;52.368;9.966;2023-03-31T02:33:36;3.70;;;2.00;;
13743;SDS011;6943;52.368;9.966;2023-03-31T02:36:02;7.03;;;2.00;;
13743;SDS011;6943;52.368;9.966;2023-03-31T02:38:28;3.90;;;1.83;;
13743;SDS011;6943;52.368;9.966;2023-03-31T02:40:57;3.10;;;1.60;;
13743;SDS011;6943;52.368;9.966;2023-03-31T02:43:22;6.70;;;1.67;;
13743;SDS011;6943;52.368;9.966;2023-03-31T02:45:49;4.80;;;1.90;;
13743;SDS011;6943;52.368;9.966;2023-03-31T02:48:22;6.37;;;1.77;;
13743;SDS011;6943;52.368;9.966;2023-03-31T03:05:15;4.43;;;1.63;;
13743;SDS011;6943;52.368;9.966;2023-03-31T03:10:35;6.50;;;2.17;;
13743;SDS011;6943;52.368;9.966;2023-03-31T03:13:16;8.20;;;2.20;;
13743;SDS011;6943;52.368;9.966;2023-03-31T03:16:00;4.80;;;2.00;;
13743;SDS011;6943;52.368;9.966;2023-03-31T03:18:44;4.70;;;2.10;;
13743;SDS011;6943;52.368;9.966;2023-03-31T03:21:16;5.90;;;2.10;;
13743;SDS011;6943;52.368;9.966;2023-03-31T03:23:42;6.47;;;2.03;;
13743;SDS011;6943;52.368;9.966;2023-03-31T03:26:07;4.90;;;1.90;;
13743;SDS011;6943;52.368;9.966;2023-03-31T03:28:33;4.07;;;1.87;;
13743;SDS011;6943;52.368;9.966;2023-03-31T03:30:58;5.03;;;1.77;;
13743;SDS011;6943;52.368;9.966;2023-03-31T03:33:24;2.87;;;1.50;;
13743;SDS011;6943;52.368;9.966;2023-03-31T03:35:49;5.33;;;1.73;;
13743;SDS011;6943;52.368;9.966;2023-03-31T03:38:15;4.57;;;2.20;;
13743;SDS011;6943;52.368;9.966;2023-03-31T03:40:41;5.20;;;1.87;;
13743;SDS011;6943;52.368;9.966;2023-03-31T03:43:06;6.00;;;2.00;;
13743;SDS011;6943;52.368;9.966;2023-03-31T03:45:32;3.33;;;1.57;;
13743;SDS011;6943;52.368;9.966;2023-03-31T03:47:57;4.30;;;1.40;;
13743;SDS011;6943;52.368;9.966;2023-03-31T03:50:23;3.17;;;1.57;;
13743;SDS011;6943;52.368;9.966;2023-03-31T03:52:48;5.10;;;1.60;;
13743;SDS011;6943;52.368;9.966;2023-03-31T03:55:14;3.07;;;1.53;;
13743;SDS011;6943;52.368;9.966;2023-03-31T03:57:41;5.37;;;1.73;;
13743;SDS011;6943;52.368;9.966;2023-03-31T04:00:07;4.90;;;2.10;;
13743;SDS011;6943;52.368;9.966;2023-03-31T04:02:36;5.93;;;1.90;;
13743;SDS011;6943;52.368;9.966;2023-03-31T04:05:03;5.30;;;1.60;;
13743;SDS011;6943;52.368;9.966;2023-03-31T04:07:28;5.07;;;1.53;;
13743;SDS011;6943;52.368;9.966;2023-03-31T04:09:54;3.20;;;1.60;;
13743;SDS011;6943;52.368;9.966;2023-03-31T04:12:20;5.70;;;1.60;;
13743;SDS011;6943;52.368;9.966;2023-03-31T04:14:45;3.27;;;1.80;;
13743;SDS011;6943;52.368;9.966;2023-03-31T04:17:11;6.43;;;1.80;;
13743;SDS011;6943;52.368;9.966;2023-03-31T04:19:39;4.03;;;1.27;;
13743;SDS011;6943;52.368;9.966;2023-03-31T04:22:06;6.83;;;1.67;;
13743;SDS011;6943;52.368;9.966;2023-03-31T04:24:35;4.13;;;1.63;;
13743;SDS011;6943;52.368;9.966;2023-03-31T04:27:02;4.87;;;1.37;;
13743;SDS011;6943;52.368;9.966;2023-03-31T04:29:31;4.70;;;1.47;;
13743;SDS011;6943;52.368;9.966;2023-03-31T04:31:57;4.10;;;1.63;;
13743;SDS011;6943;52.368;9.966;2023-03-31T04:34:23;4.40;;;1.70;;
13743;SDS011;6943;52.368;9.966;2023-03-31T04:36:50;5.23;;;1.43;;
13743;SDS011;6943;52.368;9.966;2023-03-31T04:39:19;5.47;;;1.50;;
13743;SDS011;6943;52.368;9.966;2023-03-31T04:41:50;7.10;;;1.60;;
13743;SDS011;6943;52.368;9.966;2023-03-31T04:44:17;5.83;;;1.57;;
13743;SDS011;6943;52.368;9.966;2023-03-31T04:46:42;4.17;;;1.60;;
13743;SDS011;6943;52.368;9.966;2023-03-31T04:49:07;3.23;;;1.43;;
13743;SDS011;6943;52.368;9.966;2023-03-31T04:51:33;4.07;;;1.53;;
13743;SDS011;6943;52.368;9.966;2023-03-31T04:53:58;3.77;;;1.47;;
13743;SDS011;6943;52.368;9.966;2023-03-31T04:56:24;5.37;;;1.63;;
13743;SDS011;6943;52.368;9.966;2023-03-31T04:58:50;3.93;;;1.90;;
13743;SDS011;6943;52.368;9.966;2023-03-31T05:01:16;4.40;;;1.53;;
13743;SDS011;6943;52.368;9.966;2023-03-31T05:03:42;6.83;;;1.90;;
13743;SDS011;6943;52.368;9.966;2023-03-31T05:06:08;5.33;;;2.00;;
13743;SDS011;6943;52.368;9.966;2023-03-31T05:08:34;3.90;;;1.47;;
13743;SDS011;6943;52.368;9.966;2023-03-31T05:11:01;2.93;;;1.40;;
13743;SDS011;6943;52.368;9.966;2023-03-31T05:13:28;6.03;;;1.47;;
13743;SDS011;6943;52.368;9.966;2023-03-31T05:15:53;6.17;;;1.57;;
13743;SDS011;6943;52.368;9.966;2023-03-31T05:18:19;6.43;;;1.63;;
13743;SDS011;6943;52.368;9.966;2023-03-31T05:20:44;3.57;;;1.70;;
13743;SDS011;6943;52.368;9.966;2023-03-31T05:23:10;7.07;;;2.23;;
13743;SDS011;6943;52.368;9.966;2023-03-31T05:25:36;4.70;;;1.73;;
13743;SDS011;6943;52.368;9.966;2023-03-31T05:28:02;4.40;;;1.83;;
13743;SDS011;6943;52.368;9.966;2023-03-31T05:30:28;3.90;;;1.53;;
13743;SDS011;6943;52.368;9.966;2023-03-31T05:32:53;5.97;;;1.90;;
13743;SDS011;6943;52.368;9.966;2023-03-31T05:35:19;4.30;;;1.27;;
13743;SDS011;6943;52.368;9.966;2023-03-31T05:37:45;6.63;;;2.07;;
13743;SDS011;6943;52.368;9.966;2023-03-31T05:40:11;3.73;;;1.80;;
13743;SDS011;6943;52.368;9.966;2023-03-31T05:42:37;7.40;;;2.10;;
13743;SDS011;6943;52.368;9.966;2023-03-31T05:45:02;3.90;;;1.77;;
13743;SDS011;6943;52.368;9.966;2023-03-31T05:47:29;3.87;;;1.50;;
13743;SDS011;6943;52.368;9.966;2023-03-31T05:49:56;7.40;;;1.93;;
13743;SDS011;6943;52.368;9.966;2023-03-31T05:52:21;3.50;;;1.80;;
13743;SDS011;6943;52.368;9.966;2023-03-31T05:54:47;4.73;;;1.67;;
13743;SDS011;6943;52.368;9.966;2023-03-31T05:57:12;5.73;;;1.70;;
13743;SDS011;6943;52.368;9.966;2023-03-31T05:59:38;4.53;;;2.23;;
13743;SDS011;6943;52.368;9.966;2023-03-31T06:02:06;4.53;;;1.20;;
13743;SDS011;6943;52.368;9.966;2023-03-31T06:04:31;7.03;;;1.50;;
13743;SDS011;6943;52.368;9.966;2023-03-31T06:06:57;5.00;;;1.60;;
13743;SDS011;6943;52.368;9.966;2023-03-31T06:09:23;3.27;;;1.70;;
13743;SDS011;6943;52.368;9.966;2023-03-31T06:11:49;4.03;;;1.40;;
13743;SDS011;6943;52.368;9.966;2023-03-31T06:14:15;4.53;;;1.50;;
13743;SDS011;6943;52.368;9.966;2023-03-31T06:16:40;2.33;;;1.40;;
13743;SDS011;6943;52.368;9.966;2023-03-31T06:19:06;4.27;;;1.23;;
13743;SDS011;6943;52.368;9.966;2023-03-31T06:21:32;7.93;;;1.53;;
13743;SDS011;6943;52.368;9.966;2023-03-31T06:23:58;4.93;;;1.53;;
13743;SDS011;6943;52.368;9.966;2023-03-31T06:26:24;5.30;;;1.53;;
13743;SDS011;6943;52.368;9.966;2023-03-31T06:28:51;3.47;;;1.30;;
13743;SDS011;6943;52.368;9.966;2023-03-31T06:31:17;3.63;;;1.60;;
13743;SDS011;6943;52.368;9.966;2023-03-31T06:33:45;4.80;;;1.50;;
13743;SDS011;6943;52.368;9.966;2023-03-31T06:36:13;4.33;;;1.57;;
13743;SDS011;6943;52.368;9.966;2023-03-31T06:38:40;3.80;;;1.53;;
13743;SDS011;6943;52.368;9.966;2023-03-31T06:41:06;4.93;;;1.87;;
13743;SDS011;6943;52.368;9.966;2023-03-31T06:43:33;7.30;;;1.90;;
13743;SDS011;6943;52.368;9.966;2023-03-31T06:45:59;5.77;;;1.97;;
13743;SDS011;6943;52.368;9.966;2023-03-31T06:48:25;2.53;;;1.20;;
13743;SDS011;6943;52.368;9.966;2023-03-31T06:50:52;3.40;;;1.47;;
13743;SDS011;6943;52.368;9.966;2023-03-31T06:53:18;4.53;;;1.50;;
13743;SDS011;6943;52.368;9.966;2023-03-31T06:55:44;6.50;;;1.40;;
13743;SDS011;6943;52.368;9.966;2023-03-31T06:58:09;3.77;;;1.67;;
13743;SDS011;6943;52.368;9.966;2023-03-31T07:00:36;6.23;;;1.70;;
13743;SDS011;6943;52.368;9.966;2023-03-31T07:03:02;4.80;;;1.40;;
13743;SDS011;6943;52.368;9.966;2023-03-31T07:05:28;4.80;;;1.47;;
13743;SDS011;6943;52.368;9.966;2023-03-31T07:07:55;6.90;;;1.80;;
13743;SDS011;6943;52.368;9.966;2023-03-31T07:10:22;4.90;;;1.73;;
13743;SDS011;6943;52.368;9.966;2023-03-31T07:12:49;6.07;;;1.60;;
13743;SDS011;6943;52.368;9.966;2023-03-31T07:15:15;6.87;;;1.53;;
13743;SDS011;6943;52.368;9.966;2023-03-31T07:17:40;5.80;;;1.77;;
13743;SDS011;6943;52.368;9.966;2023-03-31T07:20:10;5.37;;;1.97;;
13743;SDS011;6943;52.368;9.966;2023-03-31T07:22:38;5.63;;;2.20;;
13743;SDS011;6943;52.368;9.966;2023-03-31T07:25:05;4.33;;;1.57;;
13743;SDS011;6943;52.368;9.966;2023-03-31T07:27:35;4.27;;;1.40;;
13743;SDS011;6943;52.368;9.966;2023-03-31T07:30:03;4.43;;;1.87;;
13743;SDS011;6943;52.368;9.966;2023-03-31T07:32:29;5.37;;;2.37;;
13743;SDS011;6943;52.368;9.966;2023-03-31T07:34:55;4.30;;;1.77;;
13743;SDS011;6943;52.368;9.966;2023-03-31T07:37:20;5.03;;;1.60;;
13743;SDS011;6943;52.368;9.966;2023-03-31T07:39:46;3.43;;;1.80;;
13743;SDS011;6943;52.368;9.966;2023-03-31T07:42:11;6.83;;;1.70;;
13743;SDS011;6943;52.368;9.966;2023-03-31T07:44:37;7.53;;;1.80;;
13743;SDS011;6943;52.368;9.966;2023-03-31T07:47:03;4.70;;;1.50;;
13743;SDS011;6943;52.368;9.966;2023-03-31T07:49:30;6.87;;;1.93;;
13743;SDS011;6943;52.368;9.966;2023-03-31T07:51:57;5.53;;;1.33;;
13743;SDS011;6943;52.368;9.966;2023-03-31T07:54:23;4.27;;;1.67;;
13743;SDS011;6943;52.368;9.966;2023-03-31T07:56:48;3.93;;;1.50;;
13743;SDS011;6943;52.368;9.966;2023-03-31T07:59:14;6.37;;;1.80;;
13743;SDS011;6943;52.368;9.966;2023-03-31T08:01:40;3.57;;;1.70;;
13743;SDS011;6943;52.368;9.966;2023-03-31T08:04:05;3.13;;;1.77;;
13743;SDS011;6943;52.368;9.966;2023-03-31T08:06:31;3.40;;;1.60;;
13743;SDS011;6943;52.368;9.966;2023-03-31T08:08:57;7.20;;;2.00;;
13743;SDS011;6943;52.368;9.966;2023-03-31T08:11:23;3.53;;;1.87;;
13743;SDS011;6943;52.368;9.966;2023-03-31T08:13:50;5.43;;;2.10;;
13743;SDS011;6943;52.368;9.966;2023-03-31T08:16:16;5.53;;;2.10;;
13743;SDS011;6943;52.368;9.966;2023-03-31T08:18:41;4.50;;;1.60;;
13743;SDS011;6943;52.368;9.966;2023-03-31T08:21:07;3.63;;;1.80;;
13743;SDS011;6943;52.368;9.966;2023-03-31T08:23:36;4.30;;;2.00;;
13743;SDS011;6943;52.368;9.966;2023-03-31T08:26:19;3.53;;;1.73;;
13743;SDS011;6943;52.368;9.966;2023-03-31T08:28:46;3.20;;;1.53;;
13743;SDS011;6943;52.368;9.966;2023-03-31T08:31:14;6.00;;;1.80;;
13743;SDS011;6943;52.368;9.966;2023-03-31T08:33:41;4.73;;;1.80;;
13743;SDS011;6943;52.368;9.966;2023-03-31T08:36:07;4.47;;;1.80;;
13743;SDS011;6943;52.368;9.966;2023-03-31T08:38:38;7.70;;;2.47;;
13743;SDS011;6943;52.368;9.966;2023-03-31T08:41:21;3.80;;;2.30;;
13743;SDS011;6943;52.368;9.966;2023-03-31T08:43:55;3.17;;;1.90;;
13743;SDS011;6943;52.368;9.966;2023-03-31T08:46:25;3.33;;;2.30;;
13743;SDS011;6943;52.368;9.966;2023-03-31T08:48:53;4.40;;;2.10;;
13743;SDS011;6943;52.368;9.966;2023-03-31T08:51:23;4.80;;;2.20;;
13743;SDS011;6943;52.368;9.966;2023-03-31T08:54:02;7.67;;;2.13;;
13743;SDS011;6943;52.368;9.966;2023-03-31T08:56:33;4.10;;;1.83;;
13743;SDS011;6943;52.368;9.966;2023-03-31T08:59:02;2.83;;;1.80;;
13743;SDS011;6943;52.368;9.966;2023-03-31T09:04:13;3.80;;;1.90;;
13743;SDS011;6943;52.368;9.966;2023-03-31T09:06:58;3.83;;;1.73;;
13743;SDS011;6943;52.368;9.966;2023-03-31T09:15:11;3.97;;;2.00;;
13743;SDS011;6943;52.368;9.966;2023-03-31T09:17:44;5.90;;;2.00;;
13743;SDS011;6943;52.368;9.966;2023-03-31T09:20:22;3.40;;;1.40;;
13743;SDS011;6943;52.368;9.966;2023-03-31T09:25:37;2.87;;;1.47;;
13743;SDS011;6943;52.368;9.966;2023-03-31T09:28:05;3.53;;;1.50;;
13743;SDS011;6943;52.368;9.966;2023-03-31T09:30:46;2.97;;;1.57;;
13743;SDS011;6943;52.368;9.966;2023-03-31T09:33:25;1.80;;;1.23;;
13743;SDS011;6943;52.368;9.966;2023-03-31T09:35:56;2.90;;;1.30;;
13743;SDS011;6943;52.368;9.966;2023-03-31T09:38:22;2.07;;;1.00;;
13743;SDS011;6943;52.368;9.966;2023-03-31T09:40:48;3.37;;;1.07;;
13743;SDS011;6943;52.368;9.966;2023-03-31T09:43:23;3.83;;;1.50;;
13743;SDS011;6943;52.368;9.966;2023-03-31T09:45:51;4.47;;;1.40;;
13743;SDS011;6943;52.368;9.966;2023-03-31T09:48:18;2.60;;;1.43;;
13743;SDS011;6943;52.368;9.966;2023-03-31T09:50:51;3.53;;;1.40;;
13743;SDS011;6943;52.368;9.966;2023-03-31T09:56:05;3.13;;;1.20;;
13743;SDS011;6943;52.368;9.966;2023-03-31T09:58:38;3.57;;;1.63;;
13743;SDS011;6943;52.368;9.966;2023-03-31T10:01:06;5.80;;;1.30;;
13743;SDS011;6943;52.368;9.966;2023-03-31T10:03:40;3.13;;;1.17;;
13743;SDS011;6943;52.368;9.966;2023-03-31T10:06:13;6.60;;;1.50;;
13743;SDS011;6943;52.368;9.966;2023-03-31T10:08:46;2.90;;;1.17;;
13743;SDS011;6943;52.368;9.966;2023-03-31T10:11:21;6.37;;;1.50;;
13743;SDS011;6943;52.368;9.966;2023-03-31T10:13:58;4.47;;;1.50;;
13743;SDS011;6943;52.368;9.966;2023-03-31T10:16:29;4.77;;;1.40;;
13743;SDS011;6943;52.368;9.966;2023-03-31T10:19:11;2.43;;;1.30;;
13743;SDS011;6943;52.368;9.966;2023-03-31T10:21:42;4.17;;;1.30;;
13743;SDS011;6943;52.368;9.966;2023-03-31T10:24:10;2.77;;;1.43;;
13743;SDS011;6943;52.368;9.966;2023-03-31T10:26:36;2.70;;;1.43;;
13743;SDS011;6943;52.368;9.966;2023-03-31T10:29:02;2.43;;;1.10;;
13743;SDS011;6943;52.368;9.966;2023-03-31T10:31:36;3.13;;;1.17;;
13743;SDS011;6943;52.368;9.966;2023-03-31T10:34:06;3.23;;;1.40;;
13743;SDS011;6943;52.368;9.966;2023-03-31T10:36:36;2.40;;;1.20;;
13743;SDS011;6943;52.368;9.966;2023-03-31T10:39:06;3.20;;;1.23;;
13743;SDS011;6943;52.368;9.966;2023-03-31T10:41:33;2.27;;;1.00;;
13743;SDS011;6943;52.368;9.966;2023-03-31T10:43:59;2.10;;;1.20;;
13743;SDS011;6943;52.368;9.966;2023-03-31T10:46:39;3.33;;;1.67;;
13743;SDS011;6943;52.368;9.966;2023-03-31T10:49:19;2.50;;;1.10;;
13743;SDS011;6943;52.368;9.966;2023-03-31T10:51:53;2.13;;;0.90;;
13743;SDS011;6943;52.368;9.966;2023-03-31T10:54:21;4.47;;;1.80;;
13743;SDS011;6943;52.368;9.966;2023-03-31T10:56:50;25.53;;;5.13;;
13743;SDS011;6943;52.368;9.966;2023-03-31T11:02:15;2.23;;;0.97;;
13743;SDS011;6943;52.368;9.966;2023-03-31T11:05:26;1.20;;;0.80;;
13743;SDS011;6943;52.368;9.966;2023-03-31T11:11:06;0.80;;;0.70;;
13743;SDS011;6943;52.368;9.966;2023-03-31T11:13:54;2.40;;;0.93;;
13743;SDS011;6943;52.368;9.966;2023-03-31T11:16:28;1.23;;;0.70;;
13743;SDS011;6943;52.368;9.966;2023-03-31T11:22:10;1.67;;;1.10;;
13743;SDS011;6943;52.368;9.966;2023-03-31T11:24:56;2.57;;;1.13;;
13743;SDS011;6943;52.368;9.966;2023-03-31T11:33:18;1.83;;;0.73;;
13743;SDS011;6943;52.368;9.966;2023-03-31T11:36:19;3.90;;;1.10;;
13743;SDS011;6943;52.368;9.966;2023-03-31T11:42:07;2.03;;;1.00;;
13743;SDS011;6943;52.368;9.966;2023-03-31T11:44:43;2.47;;;1.30;;
13743;SDS011;6943;52.368;9.966;2023-03-31T11:47:27;1.60;;;1.27;;
13743;SDS011;6943;52.368;9.966;2023-03-31T11:50:03;1.63;;;1.03;;
13743;SDS011;6943;52.368;9.966;2023-03-31T11:53:05;1.30;;;1.20;;
13743;SDS011;6943;52.368;9.966;2023-03-31T11:55:39;2.70;;;1.43;;
13743;SDS011;6943;52.368;9.966;2023-03-31T12:03:53;1.30;;;0.93;;
13743;SDS011;6943;52.368;9.966;2023-03-31T12:06:38;1.80;;;0.80;;
13743;SDS011;6943;52.368;9.966;2023-03-31T12:12:08;1.47;;;0.70;;
13743;SDS011;6943;52.368;9.966;2023-03-31T12:15:02;1.87;;;1.10;;
13743;SDS011;6943;52.368;9.966;2023-03-31T12:17:32;1.20;;;0.80;;
13743;SDS011;6943;52.368;9.966;2023-03-31T12:20:01;1.20;;;1.00;;
13743;SDS011;6943;52.368;9.966;2023-03-31T12:22:38;0.80;;;0.70;;
13743;SDS011;6943;52.368;9.966;2023-03-31T12:25:11;3.57;;;1.07;;
13743;SDS011;6943;52.368;9.966;2023-03-31T12:27:39;2.10;;;1.03;;
13743;SDS011;6943;52.368;9.966;2023-03-31T12:30:11;1.13;;;0.90;;
13743;SDS011;6943;52.368;9.966;2023-03-31T12:32:55;1.57;;;0.80;;
13743;SDS011;6943;52.368;9.966;2023-03-31T12:38:37;0.73;;;0.67;;
13743;SDS011;6943;52.368;9.966;2023-03-31T12:55:56;2.23;;;1.13;;
13743;SDS011;6943;52.368;9.966;2023-03-31T13:03:44;2.00;;;0.97;;
13743;SDS011;6943;52.368;9.966;2023-03-31T13:06:44;1.37;;;0.83;;
13743;SDS011;6943;52.368;9.966;2023-03-31T13:09:00;2.00;;;1.33;;
13743;SDS011;6943;52.368;9.966;2023-03-31T13:13:59;3.17;;;1.20;;
13743;SDS011;6943;52.368;9.966;2023-03-31T13:16:27;1.90;;;1.47;;
13743;SDS011;6943;52.368;9.966;2023-03-31T13:18:53;1.60;;;1.07;;
13743;SDS011;6943;52.368;9.966;2023-03-31T13:21:20;1.80;;;1.40;;
13743;SDS011;6943;52.368;9.966;2023-03-31T13:23:46;1.37;;;1.00;;
13743;SDS011;6943;52.368;9.966;2023-03-31T13:34:26;2.80;;;1.37;;
13743;SDS011;6943;52.368;9.966;2023-03-31T13:37:18;2.20;;;1.23;;
13743;SDS011;6943;52.368;9.966;2023-03-31T13:42:52;2.90;;;1.10;;
13743;SDS011;6943;52.368;9.966;2023-03-31T13:48:48;3.10;;;1.23;;
13743;SDS011;6943;52.368;9.966;2023-03-31T13:51:33;4.27;;;1.80;;
13743;SDS011;6943;52.368;9.966;2023-03-31T14:03:34;3.90;;;1.13;;
13743;SDS011;6943;52.368;9.966;2023-03-31T14:06:30;3.27;;;1.33;;
13743;SDS011;6943;52.368;9.966;2023-03-31T14:09:07;2.73;;;1.73;;
13743;SDS011;6943;52.368;9.966;2023-03-31T14:11:36;1.73;;;1.13;;
13743;SDS011;6943;52.368;9.966;2023-03-31T14:14:03;5.33;;;1.73;;
13743;SDS011;6943;52.368;9.966;2023-03-31T14:16:51;3.43;;;1.30;;
13743;SDS011;6943;52.368;9.966;2023-03-31T14:19:33;2.47;;;1.53;;
13743;SDS011;6943;52.368;9.966;2023-03-31T14:28:04;4.13;;;1.50;;
13743;SDS011;6943;52.368;9.966;2023-03-31T14:33:49;4.53;;;1.80;;
13743;SDS011;6943;52.368;9.966;2023-03-31T14:36:36;7.13;;;2.30;;
13743;SDS011;6943;52.368;9.966;2023-03-31T14:39:13;4.77;;;2.30;;
13743;SDS011;6943;52.368;9.966;2023-03-31T14:41:49;4.70;;;2.37;;
13743;SDS011;6943;52.368;9.966;2023-03-31T14:44:18;3.57;;;1.97;;
13743;SDS011;6943;52.368;9.966;2023-03-31T14:46:44;3.50;;;1.90;;
13743;SDS011;6943;52.368;9.966;2023-03-31T14:49:21;6.43;;;2.33;;
13743;SDS011;6943;52.368;9.966;2023-03-31T14:51:51;5.10;;;2.67;;
13743;SDS011;6943;52.368;9.966;2023-03-31T14:54:18;4.83;;;2.53;;
13743;SDS011;6943;52.368;9.966;2023-03-31T14:56:45;6.50;;;2.47;;
13743;SDS011;6943;52.368;9.966;2023-03-31T14:59:25;6.57;;;5.20;;
13743;SDS011;6943;52.368;9.966;2023-03-31T15:01:55;5.50;;;2.30;;
13743;SDS011;6943;52.368;9.966;2023-03-31T15:04:22;6.57;;;4.20;;
13743;SDS011;6943;52.368;9.966;2023-03-31T15:06:50;7.20;;;3.53;;
13743;SDS011;6943;52.368;9.966;2023-03-31T15:09:19;5.27;;;1.90;;
13743;SDS011;6943;52.368;9.966;2023-03-31T15:11:55;3.53;;;2.10;;
13743;SDS011;6943;52.368;9.966;2023-03-31T15:14:32;6.17;;;1.83;;
13743;SDS011;6943;52.368;9.966;2023-03-31T15:17:00;6.47;;;1.53;;
13743;SDS011;6943;52.368;9.966;2023-03-31T15:19:27;6.67;;;2.00;;
13743;SDS011;6943;52.368;9.966;2023-03-31T15:21:55;5.50;;;2.00;;
13743;SDS011;6943;52.368;9.966;2023-03-31T15:24:25;6.07;;;2.00;;
13743;SDS011;6943;52.368;9.966;2023-03-31T15:26:55;6.03;;;2.10;;
13743;SDS011;6943;52.368;9.966;2023-03-31T15:29:39;4.37;;;1.90;;
13743;SDS011;6943;52.368;9.966;2023-03-31T15:32:16;5.83;;;1.93;;
13743;SDS011;6943;52.368;9.966;2023-03-31T15:34:52;6.67;;;2.17;;
13743;SDS011;6943;52.368;9.966;2023-03-31T15:37:26;5.57;;;1.70;;
13743;SDS011;6943;52.368;9.966;2023-03-31T15:39:56;6.13;;;1.67;;
13743;SDS011;6943;52.368;9.966;2023-03-31T15:42:24;3.60;;;1.93;;
13743;SDS011;6943;52.368;9.966;2023-03-31T15:44:55;6.13;;;3.77;;
13743;SDS011;6943;52.368;9.966;2023-03-31T15:47:33;15.67;;;10.03;;
13743;SDS011;6943;52.368;9.966;2023-03-31T15:50:07;18.00;;;13.27;;
13743;SDS011;6943;52.368;9.966;2023-03-31T15:52:37;20.63;;;14.27;;
13743;SDS011;6943;52.368;9.966;2023-03-31T15:57:49;4.23;;;2.50;;
13743;SDS011;6943;52.368;9.966;2023-03-31T16:03:13;8.43;;;5.83;;
13743;SDS011;6943;52.368;9.966;2023-03-31T16:05:52;8.23;;;5.30;;
13743;SDS011;6943;52.368;9.966;2023-03-31T16:09:22;11.83;;;5.70;;
13743;SDS011;6943;52.368;9.966;2023-03-31T16:11:42;7.13;;;4.50;;
13743;SDS011;6943;52.368;9.966;2023-03-31T16:14:24;5.77;;;2.73;;
13743;SDS011;6943;52.368;9.966;2023-03-31T16:16:58;4.77;;;2.20;;
13743;SDS011;6943;52.368;9.966;2023-03-31T16:19:28;4.77;;;2.80;;
13743;SDS011;6943;52.368;9.966;2023-03-31T16:22:02;7.70;;;3.70;;
13743;SDS011;6943;52.368;9.966;2023-03-31T16:24:32;5.00;;;3.10;;
13743;SDS011;6943;52.368;9.966;2023-03-31T16:27:00;5.20;;;2.90;;
13743;SDS011;6943;52.368;9.966;2023-03-31T16:29:30;6.47;;;2.90;;
13743;SDS011;6943;52.368;9.966;2023-03-31T16:32:13;6.40;;;2.90;;
13743;SDS011;6943;52.368;9.966;2023-03-31T16:37:17;9.87;;;3.60;;
13743;SDS011;6943;52.368;9.966;2023-03-31T16:39:43;7.10;;;2.97;;
13743;SDS011;6943;52.368;9.966;2023-03-31T16:42:08;8.20;;;2.63;;
13743;SDS011;6943;52.368;9.966;2023-03-31T16:44:34;5.80;;;2.87;;
13743;SDS011;6943;52.368;9.966;2023-03-31T16:47:00;5.17;;;3.27;;
13743;SDS011;6943;52.368;9.966;2023-03-31T16:49:25;6.17;;;2.63;;
13743;SDS011;6943;52.368;9.966;2023-03-31T16:51:51;6.27;;;2.70;;
13743;SDS011;6943;52.368;9.966;2023-03-31T16:54:16;5.83;;;2.53;;
13743;SDS011;6943;52.368;9.966;2023-03-31T16:56:42;4.30;;;2.50;;
13743;SDS011;6943;52.368;9.966;2023-03-31T16:59:07;4.63;;;2.13;;
13743;SDS011;6943;52.368;9.966;2023-03-31T17:01:33;3.87;;;1.53;;
13743;SDS011;6943;52.368;9.966;2023-03-31T17:03:59;6.23;;;2.13;;
13743;SDS011;6943;52.368;9.966;2023-03-31T17:06:25;5.70;;;2.77;;
13743;SDS011;6943;52.368;9.966;2023-03-31T17:08:51;4.63;;;2.60;;
13743;SDS011;6943;52.368;9.966;2023-03-31T17:11:17;4.07;;;2.27;;
13743;SDS011;6943;52.368;9.966;2023-03-31T17:13:43;5.43;;;2.90;;
13743;SDS011;6943;52.368;9.966;2023-03-31T17:16:09;5.83;;;3.73;;
13743;SDS011;6943;52.368;9.966;2023-03-31T17:18:35;8.00;;;4.33;;
13743;SDS011;6943;52.368;9.966;2023-03-31T17:21:01;6.37;;;4.40;;
13743;SDS011;6943;52.368;9.966;2023-03-31T17:23:28;6.97;;;4.50;;
13743;SDS011;6943;52.368;9.966;2023-03-31T17:25:54;6.43;;;5.50;;
13743;SDS011;6943;52.368;9.966;2023-03-31T17:28:19;6.90;;;4.70;;
13743;SDS011;6943;52.368;9.966;2023-03-31T17:30:45;9.67;;;4.53;;
13743;SDS011;6943;52.368;9.966;2023-03-31T17:33:13;7.87;;;3.50;;
13743;SDS011;6943;52.368;9.966;2023-03-31T17:35:39;4.03;;;2.33;;
13743;SDS011;6943;52.368;9.966;2023-03-31T17:38:05;6.40;;;2.87;;
13743;SDS011;6943;52.368;9.966;2023-03-31T17:40:30;5.07;;;2.70;;
13743;SDS011;6943;52.368;9.966;2023-03-31T17:42:58;5.90;;;3.00;;
13743;SDS011;6943;52.368;9.966;2023-03-31T17:45:24;8.10;;;2.97;;